Time;durP1;ratioP1;P1;durP2;ratioP2;P2;SDS_P1;SDS_P2;PMS_P1;PMS_P2;Temp;Humidity;BMP_temperature;BMP_pressure;BME280_temperature;BME280_humidity;BME280_pressure;Samples;Min_cycle;Max_cycle;Signal;HPM_P1;HPM_P2
2021/09/17 00:00:46;;;;;;;5.00;2.70;;;;;;;22.90;46.91;100396.38;4973618;28;20084;-74
2021/09/17 00:03:16;;;;;;;3.47;2.75;;;;;;;22.83;47.99;100391.66;4974387;28;20473;-74
2021/09/17 00:05:44;;;;;;;3.58;2.83;;;;;;;22.58;49.42;100380.09;4973601;28;20030;-72
2021/09/17 00:08:13;;;;;;;3.10;2.80;;;;;;;22.64;50.15;100382.00;4973527;28;20044;-74
2021/09/17 00:10:41;;;;;;;3.10;2.90;;;;;;;22.56;51.51;100377.72;4990738;28;20026;-72
2021/09/17 00:13:10;;;;;;;2.90;2.70;;;;;;;22.49;52.50;100394.91;4973644;28;20041;-72
2021/09/17 00:15:41;;;;;;;3.13;2.80;;;;;;;22.45;52.96;100399.84;4973505;28;20038;-74
2021/09/17 00:18:08;;;;;;;3.05;2.75;;;;;;;22.41;50.59;100405.59;4990569;28;20042;-72
2021/09/17 00:20:37;;;;;;;2.40;2.30;;;;;;;22.35;50.26;100441.34;4973531;28;20027;-72
2021/09/17 00:23:07;;;;;;;5.25;2.40;;;;;;;22.44;48.25;100483.28;4990792;28;20088;-72
2021/09/17 00:25:35;;;;;;;2.40;2.20;;;;;;;22.39;47.99;100487.44;4973642;28;20038;-73
2021/09/17 00:28:03;;;;;;;2.70;2.50;;;;;;;22.42;47.82;100494.25;4973891;28;20030;-72
2021/09/17 00:30:31;;;;;;;2.63;2.42;;;;;;;22.45;47.73;100497.03;4973276;28;20050;-74
2021/09/17 00:32:59;;;;;;;2.90;2.67;;;;;;;22.46;47.98;100495.78;4973206;28;20027;-73
2021/09/17 00:35:27;;;;;;;4.53;2.83;;;;;;;22.60;47.14;100503.19;4973613;28;20488;-73
2021/09/17 00:37:55;;;;;;;2.95;2.53;;;;;;;22.48;48.17;100493.34;4973330;28;20084;-74
2021/09/17 00:40:26;;;;;;;3.28;2.53;;;;;;;22.48;47.99;100493.34;4976745;28;20453;-73
2021/09/17 00:42:55;;;;;;;3.88;2.92;;;;;;;22.40;48.15;100493.91;4977274;28;20030;-74
2021/09/17 00:45:25;;;;;;;3.00;2.80;;;;;;;22.37;49.10;100495.59;4976767;28;20458;-72
2021/09/17 00:47:56;;;;;;;3.17;2.70;;;;;;;22.40;49.52;100493.91;4976759;28;20030;-74
2021/09/17 00:50:24;;;;;;;4.65;3.10;;;;;;;22.40;50.43;100489.03;4976461;28;20034;-74
2021/09/17 00:52:53;;;;;;;3.33;3.03;;;;;;;22.49;52.39;100486.41;4976814;28;20050;-72
2021/09/17 00:55:22;;;;;;;3.97;2.70;;;;;;;22.55;52.03;100489.53;4976460;28;20041;-74
2021/09/17 00:57:51;;;;;;;3.40;3.10;;;;;;;22.68;51.07;100492.50;4976566;28;20496;-74
2021/09/17 01:00:23;;;;;;;3.20;2.92;;;;;;;22.71;51.30;100491.63;4976715;28;20029;-72
2021/09/17 01:02:51;;;;;;;3.55;3.25;;;;;;;22.81;52.91;100482.09;4976412;28;20029;-72
2021/09/17 01:05:19;;;;;;;3.28;2.97;;;;;;;22.83;52.20;100462.56;4976539;28;20026;-73
2021/09/17 01:07:50;;;;;;;4.20;3.85;;;;;;;22.91;52.62;100449.06;4976357;28;20545;-74
2021/09/17 01:10:21;;;;;;;3.65;3.35;;;;;;;22.83;53.23;100434.22;4976929;28;20026;-74
2021/09/17 01:12:50;;;;;;;6.07;3.92;;;;;;;22.76;53.94;100423.03;4976752;28;20469;-74
2021/09/17 01:15:15;;;;;;;5.22;3.92;;;;;;;22.81;54.32;100388.47;4976483;28;20031;-72
2021/09/17 01:17:45;;;;;;;3.78;3.47;;;;;;;22.94;54.26;100363.84;4976572;28;20431;-74
2021/09/17 01:20:20;;;;;;;4.18;3.78;;;;;;;22.72;55.38;100345.75;4976648;28;20400;-72
2021/09/17 01:22:52;;;;;;;5.38;4.40;;;;;;;22.66;55.60;100330.50;4975919;28;20023;-72
2021/09/17 01:25:23;;;;;;;4.93;4.53;;;;;;;22.65;55.91;100340.25;4976838;28;20476;-72
2021/09/17 01:27:52;;;;;;;4.30;3.97;;;;;;;22.57;56.01;100327.47;4975896;28;20022;-72
2021/09/17 01:30:22;;;;;;;4.10;3.80;;;;;;;22.59;55.73;100293.81;5045178;28;20058;-74
2021/09/17 01:32:48;;;;;;;4.38;3.97;;;;;;;22.57;56.11;100282.91;5075594;28;20110;-72
2021/09/17 01:35:19;;;;;;;4.10;3.75;;;;;;;22.52;56.11;100320.28;5077902;28;20028;-74
2021/09/17 01:37:48;;;;;;;3.25;3.05;;;;;;;22.60;54.68;100372.75;5077687;28;20566;-74
2021/09/17 01:40:18;;;;;;;6.53;3.38;;;;;;;22.60;53.91;100388.97;5077956;28;20032;-72
2021/09/17 01:42:45;;;;;;;3.63;3.33;;;;;;;22.58;54.52;100368.75;5077640;28;20116;-73
2021/09/17 01:45:15;;;;;;;3.97;3.40;;;;;;;22.58;54.96;100368.75;5077539;28;20459;-72
2021/09/17 01:47:43;;;;;;;3.80;3.47;;;;;;;22.56;55.17;100371.25;5077822;28;20054;-72
2021/09/17 01:50:09;;;;;;;3.40;3.15;;;;;;;22.60;55.56;100352.91;5077041;28;20097;-72
2021/09/17 01:52:37;;;;;;;3.88;3.47;;;;;;;22.59;55.55;100336.34;5077410;28;20085;-72
2021/09/17 01:55:06;;;;;;;4.45;4.05;;;;;;;22.57;55.56;100316.13;5077561;28;20390;-73
2021/09/17 01:57:35;;;;;;;5.10;4.60;;;;;;;22.39;56.47;100310.88;5077892;28;20032;-74
2021/09/17 02:00:01;;;;;;;4.30;3.95;;;;;;;22.40;56.37;100301.16;5077557;28;20032;-72
2021/09/17 02:02:29;;;;;;;7.57;4.78;;;;;;;22.29;56.76;100273.06;5077221;28;20024;-74
2021/09/17 02:04:57;;;;;;;4.47;4.07;;;;;;;22.16;57.69;100263.66;5094006;28;20123;-74
2021/09/17 02:07:28;;;;;;;4.00;3.58;;;;;;;22.22;57.94;100268.34;5077136;28;20020;-72
2021/09/17 02:09:57;;;;;;;4.63;4.22;;;;;;;22.28;57.16;100265.00;5076765;28;20032;-73
2021/09/17 02:12:27;;;;;;;4.35;4.05;;;;;;;22.25;57.50;100278.00;5076996;28;20050;-74
2021/09/17 02:14:56;;;;;;;4.35;3.80;;;;;;;22.24;57.02;100265.06;5076898;28;20493;-73
2021/09/17 02:17:26;;;;;;;4.50;4.20;;;;;;;22.21;57.20;100260.28;5076803;28;20052;-73
2021/09/17 02:19:55;;;;;;;4.15;3.85;;;;;;;22.19;57.80;100251.44;5076812;28;20034;-76
2021/09/17 02:22:21;;;;;;;6.05;4.05;;;;;;;22.19;58.13;100237.25;5077094;28;20038;-75
2021/09/17 02:24:47;;;;;;;3.97;3.63;;;;;;;22.22;58.09;100236.38;5077563;28;20349;-73
2021/09/17 02:27:13;;;;;;;4.10;3.67;;;;;;;22.19;57.92;100240.88;5077239;28;20035;-72
2021/09/17 02:29:44;;;;;;;5.28;3.92;;;;;;;22.09;57.18;100232.63;5076297;28;20396;-74
2021/09/17 02:32:13;;;;;;;4.93;4.43;;;;;;;21.92;56.64;100226.91;5076852;28;20029;-76
2021/09/17 02:34:42;;;;;;;8.68;5.93;;;;;;;21.96;56.72;100221.97;5076575;28;20115;-72
2021/09/17 02:37:11;;;;;;;7.25;4.03;;;;;;;21.80;57.84;100210.63;5076495;28;20028;-71
2021/09/17 02:39:36;;;;;;;6.75;3.88;;;;;;;21.81;57.18;100212.22;5076817;28;20036;-74
2021/09/17 02:42:04;;;;;;;6.32;4.13;;;;;;;21.89;57.75;100202.31;5093365;28;20387;-74
2021/09/17 02:44:32;;;;;;;6.05;4.60;;;;;;;21.98;56.83;100202.50;5076967;28;20028;-74
2021/09/17 02:47:03;;;;;;;6.10;5.15;;;;;;;21.87;58.20;100193.44;5076903;28;20471;-72
2021/09/17 02:49:33;;;;;;;5.13;4.32;;;;;;;21.87;58.54;100182.13;5071640;28;20032;-71
2021/09/17 02:52:02;;;;;;;4.13;3.75;;;;;;;21.91;59.11;100194.16;5076788;28;20371;-73
2021/09/17 02:54:30;;;;;;;4.70;4.30;;;;;;;21.93;59.44;100188.84;5093050;28;20036;-74
2021/09/17 02:57:00;;;;;;;4.32;3.92;;;;;;;21.98;59.84;100196.81;5076125;28;20023;-74
2021/09/17 02:59:25;;;;;;;5.35;4.85;;;;;;;21.99;58.77;100189.13;5076106;28;20040;-73
2021/09/17 03:01:57;;;;;;;5.07;4.68;;;;;;;21.98;58.31;100196.81;5075380;28;20034;-73
2021/09/17 03:04:28;;;;;;;5.88;5.25;;;;;;;22.04;57.66;100199.13;5038466;28;20027;-72
2021/09/17 03:06:59;;;;;;;5.70;5.15;;;;;;;22.06;58.27;100191.81;5075988;28;20036;-74
2021/09/17 03:09:27;;;;;;;4.50;4.10;;;;;;;22.00;58.05;100172.91;5075929;28;20063;-74
2021/09/17 03:11:56;;;;;;;6.97;6.38;;;;;;;22.00;58.08;100185.06;5076154;28;20035;-73
2021/09/17 03:14:27;;;;;;;13.02;11.82;;;;;;;22.02;57.83;100179.75;5093670;28;20032;-73
2021/09/17 03:16:55;;;;;;;15.48;14.07;;;;;;;22.04;57.71;100170.81;5076429;28;20207;-75
2021/09/17 03:19:20;;;;;;;7.85;7.15;;;;;;;22.08;57.47;100171.53;5075774;28;20114;-74
2021/09/17 03:21:49;;;;;;;6.18;5.57;;;;;;;22.12;57.43;100172.28;5075750;28;20111;-74
2021/09/17 03:24:17;;;;;;;8.60;7.70;;;;;;;22.06;58.73;100163.47;5075750;28;20038;-74
2021/09/17 03:26:48;;;;;;;12.52;11.32;;;;;;;22.10;57.37;100152.03;5076218;28;20032;-73
2021/09/17 03:29:18;;;;;;;9.48;7.50;;;;;;;22.04;57.27;100150.97;5053655;28;20092;-74
2021/09/17 03:31:49;;;;;;;9.70;8.70;;;;;;;22.02;57.47;100154.25;5058637;28;20030;-76
2021/09/17 03:34:20;;;;;;;8.38;7.68;;;;;;;21.95;57.05;100146.75;5059263;28;20133;-73
2021/09/17 03:36:48;;;;;;;8.05;7.35;;;;;;;21.96;56.76;100130.53;5059100;28;20034;-74
2021/09/17 03:39:15;;;;;;;5.63;5.13;;;;;;;21.93;56.61;100120.06;5058643;28;20068;-73
2021/09/17 03:41:45;;;;;;;7.00;5.53;;;;;;;21.99;56.86;100112.63;5058255;28;20034;-75
2021/09/17 03:44:15;;;;;;;4.88;3.95;;;;;;;22.05;53.61;100110.06;4991408;28;20030;-75
2021/09/17 03:46:43;;;;;;;4.05;3.70;;;;;;;22.12;54.78;100121.28;5041925;28;20026;-73
2021/09/17 03:49:14;;;;;;;4.82;4.43;;;;;;;22.15;55.12;100143.03;5075663;28;20099;-73
2021/09/17 03:51:42;;;;;;;8.60;3.70;;;;;;;22.17;55.34;100152.69;5058678;28;20031;-73
2021/09/17 03:54:10;;;;;;;4.00;3.67;;;;;;;22.22;53.75;100148.53;5058626;28;20030;-74
2021/09/17 03:56:38;;;;;;;3.47;3.28;;;;;;;22.19;52.78;100143.75;5059061;28;20034;-74
2021/09/17 03:59:08;;;;;;;6.93;4.95;;;;;;;22.20;52.04;100146.13;5058922;28;20121;-74
2021/09/17 04:01:33;;;;;;;4.22;3.83;;;;;;;22.22;51.95;100142.88;5059283;28;20084;-75
2021/09/17 04:04:01;;;;;;;6.85;4.70;;;;;;;22.19;52.62;100155.09;5058461;28;20461;-72
2021/09/17 04:06:27;;;;;;;8.60;7.75;;;;;;;22.17;52.75;100160.41;5058164;28;20117;-73
2021/09/17 04:08:57;;;;;;;7.38;6.68;;;;;;;22.17;51.53;100155.53;5058335;28;20133;-73
2021/09/17 04:11:23;;;;;;;7.25;6.38;;;;;;;22.19;52.79;100161.53;5058347;28;20121;-72
2021/09/17 04:13:49;;;;;;;6.38;5.63;;;;;;;22.19;51.66;100149.41;5061321;28;20126;-73
2021/09/17 04:16:19;;;;;;;5.03;4.63;;;;;;;22.17;51.67;100134.91;5062682;28;20035;-73
2021/09/17 04:18:48;;;;;;;4.60;4.20;;;;;;;22.21;52.14;100144.09;4994113;28;20033;-75
2021/09/17 04:21:16;;;;;;;4.85;3.30;;;;;;;22.23;49.87;100152.97;5060733;28;20049;-74
2021/09/17 04:23:44;;;;;;;3.47;2.97;;;;;;;22.20;51.58;100165.16;5061929;28;20034;-74
2021/09/17 04:26:17;;;;;;;5.85;4.07;;;;;;;22.23;51.47;100178.47;5061743;28;20061;-74
2021/09/17 04:28:49;;;;;;;4.88;3.70;;;;;;;22.18;50.37;100193.16;5058124;28;20061;-72
2021/09/17 04:31:14;;;;;;;5.28;3.55;;;;;;;22.22;50.65;100210.88;5058564;28;20035;-75
2021/09/17 04:33:43;;;;;;;3.95;3.55;;;;;;;22.22;50.77;100227.88;5059004;28;20430;-74
2021/09/17 04:36:16;;;;;;;6.88;3.47;;;;;;;22.23;51.12;100257.81;5059256;28;20411;-75
2021/09/17 04:38:42;;;;;;;;;;;;;;;22.27;50.54;100269.88;5059383;28;20063;-75
2021/09/17 04:41:12;;;;;;;3.08;2.80;;;;;;;22.34;49.63;100266.84;5058765;28;20322;-72
2021/09/17 04:43:40;;;;;;;2.65;2.45;;;;;;;22.32;48.86;100229.66;5058585;28;20115;-74
2021/09/17 04:46:09;;;;;;;2.72;2.53;;;;;;;22.34;49.79;100198.03;5059039;28;20426;-72
2021/09/17 04:48:40;;;;;;;7.47;2.78;;;;;;;22.37;50.90;100199.97;5058504;28;20027;-73
2021/09/17 04:51:08;;;;;;;4.13;3.03;;;;;;;22.45;50.37;100224.06;5059086;28;20392;-73
2021/09/17 04:53:39;;;;;;;3.45;3.15;;;;;;;22.43;49.57;100199.00;5042011;28;20083;-75
2021/09/17 04:56:12;;;;;;;3.38;2.40;;;;;;;22.46;49.59;100191.66;5058379;28;20034;-72
2021/09/17 04:58:40;;;;;;;2.95;2.55;;;;;;;22.61;49.72;100214.75;5058603;28;20039;-73
2021/09/17 05:01:11;;;;;;;3.83;2.92;;;;;;;22.65;47.99;100232.50;5058296;28;20115;-73
2021/09/17 05:03:39;;;;;;;7.35;2.97;;;;;;;22.68;48.38;100246.56;5076106;28;20116;-73
2021/09/17 05:06:08;;;;;;;3.78;2.90;;;;;;;22.74;48.09;100309.22;5058586;28;20032;-74
2021/09/17 05:08:39;;;;;;;6.72;4.13;;;;;;;22.97;47.25;100367.84;5058025;28;20028;-72
2021/09/17 05:11:10;;;;;;;11.65;6.28;;;;;;;22.86;48.08;100387.94;5075748;28;20475;-73
2021/09/17 05:13:38;;;;;;;6.05;5.30;;;;;;;22.84;48.46;100356.38;5057925;28;20016;-74
2021/09/17 05:16:10;;;;;;;6.40;4.32;;;;;;;22.80;49.46;100335.81;5057784;28;20024;-73
2021/09/17 05:18:43;;;;;;;8.98;4.60;;;;;;;22.78;50.56;100354.50;5057864;28;20033;-74
2021/09/17 05:21:13;;;;;;;8.43;4.57;;;;;;;22.76;51.00;100374.81;5058113;28;20094;-74
2021/09/17 05:23:44;;;;;;;7.53;5.20;;;;;;;22.64;50.53;100321.66;5057355;28;20120;-74
2021/09/17 05:26:12;;;;;;;8.27;5.45;;;;;;;21.98;55.20;100225.16;5075528;28;20028;-75
2021/09/17 05:28:41;;;;;;;12.73;5.70;;;;;;;21.51;56.65;100196.28;5057884;28;20044;-73
2021/09/17 05:31:09;;;;;;;8.30;5.63;;;;;;;21.13;56.81;100161.88;4981743;28;20041;-75
2021/09/17 05:33:37;;;;;;;7.60;5.75;;;;;;;21.08;58.26;100145.44;4976220;28;20471;-74
2021/09/17 05:36:05;;;;;;;9.43;6.75;;;;;;;20.71;60.85;100169.19;4976086;28;20425;-75
2021/09/17 05:38:31;;;;;;;7.20;5.43;;;;;;;20.68;62.10;100201.97;4975685;28;20035;-74
2021/09/17 05:41:04;;;;;;;7.25;5.75;;;;;;;20.75;63.29;100227.25;4975101;28;20030;-73
2021/09/17 05:43:32;;;;;;;9.93;6.22;;;;;;;20.77;64.83;100233.28;4992932;28;20038;-72
2021/09/17 05:46:03;;;;;;;8.52;7.55;;;;;;;20.76;65.46;100243.00;4975650;28;20112;-72
2021/09/17 05:48:33;;;;;;;14.32;12.82;;;;;;;20.89;65.22;100251.66;4975135;28;20030;-72
2021/09/17 05:51:01;;;;;;;13.93;10.65;;;;;;;20.79;65.57;100261.94;4974893;28;20034;-72
2021/09/17 05:53:30;;;;;;;15.85;14.25;;;;;;;20.84;65.03;100289.72;4975141;28;20034;-73
2021/09/17 05:56:01;;;;;;;17.88;16.00;;;;;;;20.82;66.34;100309.13;4975206;28;20034;-76
2021/09/17 05:58:34;;;;;;;12.27;10.98;;;;;;;20.88;67.39;100272.69;4975132;28;20129;-74
2021/09/17 06:01:04;;;;;;;7.95;7.20;;;;;;;20.73;64.39;100226.13;4992188;28;20069;-76
2021/09/17 06:03:32;;;;;;;13.68;9.80;;;;;;;20.90;66.29;100293.66;4992749;28;20068;-73
2021/09/17 06:05:57;;;;;;;10.80;8.45;;;;;;;20.90;67.48;100290.81;4975171;28;20041;-75
2021/09/17 06:08:28;;;;;;;11.35;8.55;;;;;;;20.99;68.09;100297.97;4975307;28;20034;-76
2021/09/17 06:10:58;;;;;;;8.25;6.80;;;;;;;20.98;69.36;100299.16;4974965;28;20035;-76
2021/09/17 06:13:29;;;;;;;8.63;6.70;;;;;;;21.02;70.20;100288.59;4974837;28;20064;-72
2021/09/17 06:15:57;;;;;;;8.15;5.78;;;;;;;21.00;70.35;100285.41;4975085;28;20038;-72
2021/09/17 06:18:26;;;;;;;8.50;5.88;;;;;;;20.99;69.84;100286.66;4974921;28;20030;-73
2021/09/17 06:20:51;;;;;;;10.77;6.40;;;;;;;21.11;67.40;100291.66;4974823;28;20034;-72
2021/09/17 06:23:19;;;;;;;6.78;5.25;;;;;;;21.13;69.50;100306.16;5008048;28;20034;-71
2021/09/17 06:25:45;;;;;;;8.65;6.28;;;;;;;21.29;68.71;100286.47;4974665;28;20030;-72
2021/09/17 06:28:17;;;;;;;8.38;6.43;;;;;;;21.45;67.73;100288.59;4975068;28;20029;-72
2021/09/17 06:30:45;;;;;;;5.82;5.22;;;;;;;21.47;68.06;100291.03;4974644;28;20054;-72
2021/09/17 06:33:11;;;;;;;7.88;5.72;;;;;;;21.25;67.87;100279.28;4975256;28;20457;-71
2021/09/17 06:35:39;;;;;;;11.05;6.78;;;;;;;21.10;70.22;100295.75;4973565;28;20123;-71
2021/09/17 06:38:07;;;;;;;6.47;5.88;;;;;;;21.20;70.27;100306.06;4974351;28;20083;-71
2021/09/17 06:40:35;;;;;;;11.27;6.72;;;;;;;21.31;70.41;100301.03;4974492;28;20038;-72
2021/09/17 06:43:03;;;;;;;6.90;6.35;;;;;;;21.40;70.42;100323.06;4974224;28;20088;-72
2021/09/17 06:45:33;;;;;;;9.07;7.47;;;;;;;21.50;70.37;100313.56;4974467;28;20389;-72
2021/09/17 06:48:04;;;;;;;7.15;6.45;;;;;;;21.66;70.03;100305.16;4974010;28;20034;-72
2021/09/17 06:50:35;;;;;;;7.47;6.20;;;;;;;21.80;69.17;100292.75;4974219;28;20034;-72
2021/09/17 06:53:07;;;;;;;6.90;6.20;;;;;;;21.98;68.88;100276.16;4992180;28;20034;-72
2021/09/17 06:55:39;;;;;;;9.13;6.95;;;;;;;22.15;67.79;100270.53;4974380;28;20030;-72
2021/09/17 06:58:10;;;;;;;8.63;7.28;;;;;;;22.22;65.76;100264.72;4974816;28;20072;-72
2021/09/17 07:00:39;;;;;;;7.95;6.78;;;;;;;22.48;64.74;100285.56;4991832;28;20055;-72
2021/09/17 07:03:10;;;;;;;8.40;7.60;;;;;;;22.84;62.54;100285.44;4974176;28;20034;-72
2021/09/17 07:05:39;;;;;;;11.43;7.57;;;;;;;23.30;63.50;100297.66;4973792;28;20099;-72
2021/09/17 07:08:11;;;;;;;10.00;7.88;;;;;;;23.62;63.38;100307.31;4991626;28;20026;-72
2021/09/17 07:10:39;;;;;;;10.05;7.38;;;;;;;23.74;62.97;100310.22;4991382;28;20448;-73
2021/09/17 07:13:11;;;;;;;7.70;7.00;;;;;;;23.73;63.76;100307.81;4974652;28;20138;-71
2021/09/17 07:15:45;;;;;;;7.70;7.00;;;;;;;23.60;63.16;100304.13;4974483;28;20026;-72
2021/09/17 07:18:14;;;;;;;10.70;7.97;;;;;;;23.50;63.84;100294.66;4974240;28;20030;-73
2021/09/17 07:20:39;;;;;;;8.07;7.22;;;;;;;23.20;66.48;100291.00;4974103;28;20034;-73
2021/09/17 07:23:10;;;;;;;10.18;8.98;;;;;;;22.97;65.25;100282.72;4974031;28;20030;-73
2021/09/17 07:25:39;;;;;;;8.38;7.28;;;;;;;23.20;62.69;100278.88;4973995;28;20041;-73
2021/09/17 07:28:07;;;;;;;10.70;7.40;;;;;;;23.14;61.05;100277.81;4991661;28;20034;-73
2021/09/17 07:30:36;;;;;;;8.68;7.85;;;;;;;23.18;60.67;100265.13;4973396;28;20062;-72
2021/09/17 07:33:02;;;;;;;7.30;6.63;;;;;;;22.93;58.53;100259.31;4973782;28;20023;-72
2021/09/17 07:35:29;;;;;;;11.23;7.90;;;;;;;23.07;57.55;100258.16;4973864;28;20070;-74
2021/09/17 07:37:58;;;;;;;8.77;7.88;;;;;;;23.15;56.89;100257.50;4974415;28;20034;-73
2021/09/17 07:40:28;;;;;;;12.85;9.30;;;;;;;23.39;58.41;100263.75;4974083;28;20030;-73
2021/09/17 07:42:56;;;;;;;10.80;9.27;;;;;;;23.64;58.43;100245.19;4974385;28;20057;-72
2021/09/17 07:45:25;;;;;;;10.73;9.73;;;;;;;24.14;58.18;100257.88;4973758;28;20126;-72
2021/09/17 07:47:52;;;;;;;10.95;7.70;;;;;;;24.27;54.36;100252.97;4973681;28;20027;-72
2021/09/17 07:50:19;;;;;;;10.15;8.55;;;;;;;25.22;52.56;100241.66;5071900;28;20067;-73
2021/09/17 07:52:47;;;;;;;9.20;7.90;;;;;;;25.65;50.54;100245.75;5072447;28;20029;-73
2021/09/17 07:55:15;;;;;;;8.13;7.00;;;;;;;26.47;48.65;100243.34;5060316;28;20030;-73
2021/09/17 07:57:43;;;;;;;10.50;6.90;;;;;;;26.80;46.60;100251.34;5058723;28;20030;-73
2021/09/17 08:00:16;;;;;;;8.50;6.57;;;;;;;27.41;44.97;100252.34;5058318;28;20370;-72
2021/09/17 08:02:44;;;;;;;8.07;5.53;;;;;;;27.28;45.52;100249.66;4991017;28;20101;-72
2021/09/17 08:05:12;;;;;;;8.07;4.97;;;;;;;27.34;43.92;100247.75;5058605;28;20034;-74
2021/09/17 08:07:38;;;;;;;6.75;5.45;;;;;;;27.61;44.51;100255.50;5058400;28;20049;-73
2021/09/17 08:10:07;;;;;;;4.38;3.97;;;;;;;28.15;43.19;100264.44;5058539;28;20536;-74
2021/09/17 08:12:33;;;;;;;5.30;4.13;;;;;;;28.47;40.11;100253.50;5058643;28;20053;-72
2021/09/17 08:15:05;;;;;;;4.43;4.05;;;;;;;28.70;39.82;100242.06;5058121;28;20128;-72
2021/09/17 08:17:33;;;;;;;4.38;4.03;;;;;;;28.86;40.32;100251.50;5058610;28;20469;-73
2021/09/17 08:20:02;;;;;;;7.47;4.10;;;;;;;28.53;41.40;100245.84;5075262;28;20038;-72
2021/09/17 08:22:33;;;;;;;4.75;4.35;;;;;;;28.53;40.27;100240.13;5057932;28;20065;-73
2021/09/17 08:25:01;;;;;;;9.20;4.28;;;;;;;28.00;40.72;100234.94;5057873;28;20038;-73
2021/09/17 08:27:26;;;;;;;4.35;3.88;;;;;;;28.45;40.77;100233.97;5057959;28;20117;-73
2021/09/17 08:29:57;;;;;;;3.92;3.47;;;;;;;29.01;40.49;100220.88;5061158;28;20123;-72
2021/09/17 08:32:25;;;;;;;4.00;3.60;;;;;;;29.04;39.85;100219.91;5054873;28;20032;-73
2021/09/17 08:34:56;;;;;;;4.13;3.60;;;;;;;28.92;40.28;100206.59;5055026;28;20538;-71
2021/09/17 08:37:24;;;;;;;3.72;3.33;;;;;;;28.38;41.48;100205.69;5055093;28;20051;-72
2021/09/17 08:39:52;;;;;;;4.07;3.15;;;;;;;28.35;41.81;100198.88;5054673;28;20024;-72
2021/09/17 08:42:21;;;;;;;5.60;3.85;;;;;;;28.70;40.13;100201.19;5055411;28;20191;-71
2021/09/17 08:44:49;;;;;;;6.68;3.28;;;;;;;29.58;38.75;100200.63;5054781;28;20060;-72
2021/09/17 08:47:18;;;;;;;3.38;3.10;;;;;;;29.91;38.16;100193.88;5054659;28;20066;-72
2021/09/17 08:49:45;;;;;;;3.60;3.10;;;;;;;29.86;38.25;100191.72;5054755;28;20029;-73
2021/09/17 08:52:14;;;;;;;2.40;2.30;;;;;;;29.92;38.10;100184.78;5073277;28;20043;-72
2021/09/17 08:54:44;;;;;;;3.35;3.05;;;;;;;30.63;36.84;100171.22;5054947;28;20482;-72
2021/09/17 08:57:10;;;;;;;5.35;3.33;;;;;;;31.36;35.53;100156.94;5054688;28;20027;-72
2021/09/17 08:59:43;;;;;;;2.88;2.50;;;;;;;31.45;35.75;100145.28;5055825;28;20028;-73
2021/09/17 09:02:23;;;;;;;3.17;2.88;;;;;;;31.86;35.57;100140.16;5076719;28;20025;-72
2021/09/17 09:04:58;;;;;;;3.03;2.20;;;;;;;31.66;34.73;100138.13;5058085;28;20032;-71
2021/09/17 09:07:40;;;;;;;5.40;2.58;;;;;;;31.41;35.04;100157.00;5058260;28;20035;-72
2021/09/17 09:10:13;;;;;;;3.22;2.80;;;;;;;31.07;35.83;100143.56;5058239;28;20051;-74
2021/09/17 09:12:43;;;;;;;3.28;3.00;;;;;;;31.68;35.83;100147.03;5058072;28;20052;-74
2021/09/17 09:15:26;;;;;;;3.72;2.25;;;;;;;31.38;34.50;100165.84;5058162;28;20123;-73
2021/09/17 09:18:01;;;;;;;6.25;3.75;;;;;;;30.78;36.13;100174.81;5057905;28;20048;-71
2021/09/17 09:20:32;;;;;;;4.70;2.92;;;;;;;31.66;34.91;100187.03;5076068;28;20056;-73
2021/09/17 09:23:16;;;;;;;3.80;2.63;;;;;;;32.13;34.04;100187.69;5057738;28;20056;-73
2021/09/17 09:25:58;;;;;;;4.38;3.15;;;;;;;32.34;32.76;100159.56;5058302;28;20021;-71
2021/09/17 09:28:37;;;;;;;4.97;2.47;;;;;;;31.81;33.10;100189.78;5057492;28;20509;-72
2021/09/17 09:31:12;;;;;;;4.30;2.17;;;;;;;32.27;32.93;100198.22;5075999;28;20036;-74
2021/09/17 09:33:40;;;;;;;3.58;2.17;;;;;;;32.75;32.53;100199.56;5057340;28;20032;-71
2021/09/17 09:36:11;;;;;;;5.25;2.40;;;;;;;32.83;31.84;100212.19;5074896;28;20037;-73
2021/09/17 09:38:54;;;;;;;4.75;2.13;;;;;;;32.43;32.54;100221.91;5057686;28;20042;-72
2021/09/17 09:41:26;;;;;;;5.72;2.70;;;;;;;33.10;31.98;100204.97;5057381;28;20028;-72
2021/09/17 09:44:00;;;;;;;5.82;2.58;;;;;;;33.93;30.73;100220.88;5057641;28;20031;-71
2021/09/17 09:46:32;;;;;;;6.20;2.15;;;;;;;33.71;30.84;100217.94;5057865;28;20162;-71
2021/09/17 09:49:06;;;;;;;6.28;2.15;;;;;;;33.70;30.48;100228.69;5057105;28;20024;-71
2021/09/17 09:51:39;;;;;;;4.43;2.20;;;;;;;33.38;30.25;100226.00;5057113;28;20037;-72
2021/09/17 09:54:09;;;;;;;4.55;2.00;;;;;;;33.05;31.02;100220.94;5056974;28;20108;-74
2021/09/17 09:56:42;;;;;;;5.38;1.80;;;;;;;32.66;31.16;100212.09;5056970;28;20036;-72
2021/09/17 09:59:10;;;;;;;4.90;2.53;;;;;;;32.31;31.97;100210.28;5074659;28;20480;-73
2021/09/17 10:01:40;;;;;;;3.47;2.00;;;;;;;32.34;32.22;100206.41;5057363;28;20438;-71
2021/09/17 10:04:12;;;;;;;5.82;2.35;;;;;;;31.20;34.19;100210.81;5057333;28;20455;-73
2021/09/17 10:06:41;;;;;;;3.85;2.50;;;;;;;30.92;34.14;100209.72;5056878;28;20044;-72
2021/09/17 10:09:12;;;;;;;4.35;2.53;;;;;;;30.96;34.60;100230.41;5056848;28;20025;-72
2021/09/17 10:11:41;;;;;;;5.32;2.70;;;;;;;30.81;35.85;100235.44;5056296;28;20032;-72
2021/09/17 10:14:11;;;;;;;5.13;2.83;;;;;;;30.39;36.86;100225.16;5074576;28;20029;-72
2021/09/17 10:16:40;;;;;;;7.72;2.65;;;;;;;30.46;38.68;100222.66;5056341;28;20150;-70
2021/09/17 10:19:10;;;;;;;5.68;3.03;;;;;;;30.02;40.42;100217.00;5056017;28;20025;-72
2021/09/17 10:21:49;;;;;;;5.93;3.75;;;;;;;29.99;40.04;100209.41;5056082;28;20042;-70
2021/09/17 10:24:27;;;;;;;6.60;3.00;;;;;;;30.28;39.97;100177.00;5056269;28;20024;-72
2021/09/17 10:27:31;;;;;;;5.22;3.05;;;;;;;30.96;38.82;100187.31;5056726;28;20510;-73
2021/09/17 10:30:00;;;;;;;6.80;3.25;;;;;;;31.10;38.43;100172.06;4997549;28;20066;-72
2021/09/17 10:32:53;;;;;;;4.63;2.70;;;;;;;31.10;37.67;100174.94;4974655;28;20022;-71
2021/09/17 10:35:43;;;;;;;3.63;2.40;;;;;;;31.93;36.08;100177.06;4974053;28;20054;-74
2021/09/17 10:38:27;;;;;;;6.20;2.70;;;;;;;32.09;34.47;100158.34;4992715;28;20034;-74
2021/09/17 10:40:59;;;;;;;6.22;2.70;;;;;;;32.75;33.91;100176.50;4974519;28;20045;-73
2021/09/17 10:43:51;;;;;;;5.50;2.53;;;;;;;33.08;33.69;100184.53;4974850;28;20444;-73
2021/09/17 10:46:23;;;;;;;3.30;2.40;;;;;;;33.15;32.82;100183.25;4963213;28;20319;-74
2021/09/17 10:48:54;;;;;;;2.85;2.47;;;;;;;33.51;32.07;100188.06;4973966;28;20030;-71
2021/09/17 10:51:39;;;;;;;4.82;2.25;;;;;;;33.86;30.82;100180.97;4991789;28;20050;-72
2021/09/17 10:54:10;;;;;;;5.72;2.90;;;;;;;33.11;32.38;100183.47;4974230;28;20033;-71
2021/09/17 10:56:50;;;;;;;4.68;3.15;;;;;;;33.38;31.42;100170.44;4974377;28;20576;-72
2021/09/17 10:59:20;;;;;;;3.85;2.60;;;;;;;33.15;31.33;100149.44;4974298;28;20068;-72
2021/09/17 11:02:06;;;;;;;6.55;2.58;;;;;;;33.30;30.59;100135.56;4974686;28;20157;-74
2021/09/17 11:04:58;;;;;;;4.18;2.33;;;;;;;33.28;30.61;100117.19;4973950;28;20035;-72
2021/09/17 11:07:32;;;;;;;2.60;2.22;;;;;;;32.88;30.55;100106.91;4972042;28;20038;-74
2021/09/17 11:09:58;;;;;;;4.47;2.60;;;;;;;32.80;30.57;100095.88;4974117;28;20030;-72
2021/09/17 11:12:35;;;;;;;7.28;3.42;;;;;;;32.04;32.07;100090.03;4973954;28;20038;-72
2021/09/17 11:15:09;;;;;;;2.50;2.20;;;;;;;31.81;32.09;100107.16;4973997;28;20040;-74
2021/09/17 11:17:52;;;;;;;2.60;2.20;;;;;;;31.60;31.85;100107.75;4974092;28;20037;-71
2021/09/17 11:20:21;;;;;;;3.28;2.90;;;;;;;30.78;32.51;100094.41;4974292;28;20496;-71
2021/09/17 11:22:47;;;;;;;3.53;2.53;;;;;;;31.09;32.46;100109.34;4973086;28;20030;-70
2021/09/17 11:25:19;;;;;;;3.90;1.98;;;;;;;31.01;31.29;100103.28;4974178;28;20627;-73
2021/09/17 11:27:48;;;;;;;2.97;2.63;;;;;;;30.89;31.87;100110.19;4990978;28;20027;-71
2021/09/17 11:30:14;;;;;;;2.40;2.22;;;;;;;30.76;32.30;100113.44;4973294;28;20527;-73
2021/09/17 11:32:40;;;;;;;3.38;2.10;;;;;;;30.76;32.35;100111.38;4968896;28;20130;-72
2021/09/17 11:35:09;;;;;;;2.33;2.13;;;;;;;30.47;33.26;100115.19;4993152;28;20117;-73
2021/09/17 11:37:35;;;;;;;5.03;2.50;;;;;;;30.18;32.79;100113.22;4992875;28;20022;-72